sensor_id;sensor_type;location;lat;lon;timestamp;P1;durP1;ratioP1;P2;durP2;ratioP2
635;SDS011;302;50.206;8.196;2023-01-26T00:00:42;12.90;;;8.47;;
635;SDS011;302;50.206;8.196;2023-01-26T00:03:07;10.10;;;7.80;;
635;SDS011;302;50.206;8.196;2023-01-26T00:05:35;16.52;;;7.93;;
635;SDS011;302;50.206;8.196;2023-01-26T00:08:00;20.60;;;8.43;;
635;SDS011;302;50.206;8.196;2023-01-26T00:10:25;16.10;;;8.13;;
635;SDS011;302;50.206;8.196;2023-01-26T00:12:51;18.57;;;8.20;;
635;SDS011;302;50.206;8.196;2023-01-26T00:15:16;19.33;;;8.40;;
635;SDS011;302;50.206;8.196;2023-01-26T00:17:41;16.80;;;7.60;;
635;SDS011;302;50.206;8.196;2023-01-26T00:20:08;16.30;;;8.73;;
635;SDS011;302;50.206;8.196;2023-01-26T00:22:34;16.90;;;9.67;;
635;SDS011;302;50.206;8.196;2023-01-26T00:24:59;19.60;;;9.87;;
635;SDS011;302;50.206;8.196;2023-01-26T00:27:24;22.30;;;10.63;;
635;SDS011;302;50.206;8.196;2023-01-26T00:29:49;29.07;;;10.50;;
635;SDS011;302;50.206;8.196;2023-01-26T00:32:14;16.27;;;10.23;;
635;SDS011;302;50.206;8.196;2023-01-26T00:34:39;34.63;;;10.70;;
635;SDS011;302;50.206;8.196;2023-01-26T00:37:05;16.10;;;9.23;;
635;SDS011;302;50.206;8.196;2023-01-26T00:39:30;15.83;;;10.03;;
635;SDS011;302;50.206;8.196;2023-01-26T00:41:55;18.50;;;8.80;;
635;SDS011;302;50.206;8.196;2023-01-26T00:44:38;17.48;;;7.72;;
635;SDS011;302;50.206;8.196;2023-01-26T00:47:06;21.77;;;9.18;;
635;SDS011;302;50.206;8.196;2023-01-26T00:49:31;18.50;;;8.85;;
635;SDS011;302;50.206;8.196;2023-01-26T00:51:56;28.90;;;9.40;;
635;SDS011;302;50.206;8.196;2023-01-26T00:54:22;22.80;;;8.70;;
635;SDS011;302;50.206;8.196;2023-01-26T00:56:47;18.73;;;10.30;;
635;SDS011;302;50.206;8.196;2023-01-26T00:59:12;33.75;;;11.95;;
635;SDS011;302;50.206;8.196;2023-01-26T01:01:37;20.47;;;10.10;;
635;SDS011;302;50.206;8.196;2023-01-26T01:04:02;28.13;;;10.07;;
635;SDS011;302;50.206;8.196;2023-01-26T01:06:28;21.83;;;9.00;;
635;SDS011;302;50.206;8.196;2023-01-26T01:08:53;23.77;;;13.10;;
635;SDS011;302;50.206;8.196;2023-01-26T01:11:18;27.57;;;10.80;;
635;SDS011;302;50.206;8.196;2023-01-26T01:13:43;12.97;;;8.60;;
635;SDS011;302;50.206;8.196;2023-01-26T01:16:10;12.63;;;9.90;;
635;SDS011;302;50.206;8.196;2023-01-26T01:18:36;9.75;;;8.75;;
635;SDS011;302;50.206;8.196;2023-01-26T01:21:05;10.00;;;8.73;;
635;SDS011;302;50.206;8.196;2023-01-26T01:23:30;11.77;;;8.60;;
635;SDS011;302;50.206;8.196;2023-01-26T01:25:56;10.43;;;7.90;;
635;SDS011;302;50.206;8.196;2023-01-26T01:28:21;13.82;;;10.60;;
635;SDS011;302;50.206;8.196;2023-01-26T01:30:46;33.67;;;11.83;;
635;SDS011;302;50.206;8.196;2023-01-26T01:33:11;22.00;;;8.93;;
635;SDS011;302;50.206;8.196;2023-01-26T01:35:37;16.83;;;11.83;;
635;SDS011;302;50.206;8.196;2023-01-26T01:38:02;72.43;;;14.60;;
635;SDS011;302;50.206;8.196;2023-01-26T01:40:27;50.87;;;16.20;;
635;SDS011;302;50.206;8.196;2023-01-26T01:42:52;30.80;;;13.87;;
635;SDS011;302;50.206;8.196;2023-01-26T01:45:28;40.77;;;15.67;;
635;SDS011;302;50.206;8.196;2023-01-26T01:47:59;52.65;;;14.95;;
635;SDS011;302;50.206;8.196;2023-01-26T01:50:26;73.65;;;15.77;;
635;SDS011;302;50.206;8.196;2023-01-26T01:52:52;38.47;;;15.10;;
635;SDS011;302;50.206;8.196;2023-01-26T01:55:18;18.25;;;11.57;;
635;SDS011;302;50.206;8.196;2023-01-26T01:57:45;15.70;;;12.20;;
635;SDS011;302;50.206;8.196;2023-01-26T02:00:15;19.50;;;13.10;;
635;SDS011;302;50.206;8.196;2023-01-26T02:02:42;25.75;;;13.23;;
635;SDS011;302;50.206;8.196;2023-01-26T02:08:02;25.45;;;12.85;;
635;SDS011;302;50.206;8.196;2023-01-26T02:10:28;24.43;;;12.90;;
635;SDS011;302;50.206;8.196;2023-01-26T02:12:54;23.73;;;13.70;;
635;SDS011;302;50.206;8.196;2023-01-26T02:15:24;33.30;;;15.60;;
635;SDS011;302;50.206;8.196;2023-01-26T02:17:50;28.13;;;13.17;;
635;SDS011;302;50.206;8.196;2023-01-26T02:20:21;47.75;;;14.77;;
635;SDS011;302;50.206;8.196;2023-01-26T02:28:07;32.65;;;17.52;;
635;SDS011;302;50.206;8.196;2023-01-26T02:30:32;33.10;;;15.13;;
635;SDS011;302;50.206;8.196;2023-01-26T02:32:57;21.80;;;13.97;;
635;SDS011;302;50.206;8.196;2023-01-26T02:35:22;19.77;;;12.37;;
635;SDS011;302;50.206;8.196;2023-01-26T02:37:47;19.93;;;13.37;;
635;SDS011;302;50.206;8.196;2023-01-26T02:42:44;17.98;;;12.60;;
635;SDS011;302;50.206;8.196;2023-01-26T02:45:13;17.20;;;11.83;;
635;SDS011;302;50.206;8.196;2023-01-26T02:47:39;18.35;;;14.35;;
635;SDS011;302;50.206;8.196;2023-01-26T02:50:05;16.63;;;13.13;;
635;SDS011;302;50.206;8.196;2023-01-26T02:52:31;13.07;;;11.70;;
635;SDS011;302;50.206;8.196;2023-01-26T02:54:56;13.27;;;10.63;;
635;SDS011;302;50.206;8.196;2023-01-26T02:57:40;15.57;;;11.48;;
635;SDS011;302;50.206;8.196;2023-01-26T03:00:38;14.67;;;10.77;;
635;SDS011;302;50.206;8.196;2023-01-26T03:02:59;15.88;;;12.07;;
635;SDS011;302;50.206;8.196;2023-01-26T03:05:26;15.73;;;13.32;;
635;SDS011;302;50.206;8.196;2023-01-26T03:07:51;19.48;;;13.70;;
635;SDS011;302;50.206;8.196;2023-01-26T03:10:16;17.97;;;12.73;;
635;SDS011;302;50.206;8.196;2023-01-26T03:12:42;14.97;;;12.17;;
635;SDS011;302;50.206;8.196;2023-01-26T03:15:08;17.03;;;13.50;;
635;SDS011;302;50.206;8.196;2023-01-26T03:17:51;20.88;;;14.20;;
635;SDS011;302;50.206;8.196;2023-01-26T03:20:37;22.17;;;15.32;;
635;SDS011;302;50.206;8.196;2023-01-26T03:23:21;22.30;;;14.75;;
635;SDS011;302;50.206;8.196;2023-01-26T03:26:07;21.02;;;14.35;;
635;SDS011;302;50.206;8.196;2023-01-26T03:28:53;21.48;;;15.15;;
635;SDS011;302;50.206;8.196;2023-01-26T03:31:18;16.40;;;13.30;;
635;SDS011;302;50.206;8.196;2023-01-26T03:33:43;20.20;;;15.13;;
635;SDS011;302;50.206;8.196;2023-01-26T03:36:08;17.20;;;14.17;;
635;SDS011;302;50.206;8.196;2023-01-26T03:38:33;20.60;;;15.10;;
635;SDS011;302;50.206;8.196;2023-01-26T03:40:59;16.92;;;13.85;;
635;SDS011;302;50.206;8.196;2023-01-26T03:43:42;19.92;;;14.50;;
635;SDS011;302;50.206;8.196;2023-01-26T03:46:26;18.52;;;15.27;;
635;SDS011;302;50.206;8.196;2023-01-26T03:49:10;18.40;;;13.70;;
635;SDS011;302;50.206;8.196;2023-01-26T03:51:54;15.25;;;12.95;;
635;SDS011;302;50.206;8.196;2023-01-26T03:54:38;13.23;;;11.60;;
635;SDS011;302;50.206;8.196;2023-01-26T03:57:22;15.60;;;13.40;;
635;SDS011;302;50.206;8.196;2023-01-26T03:59:47;13.63;;;11.37;;
635;SDS011;302;50.206;8.196;2023-01-26T04:02:12;13.63;;;11.67;;
635;SDS011;302;50.206;8.196;2023-01-26T04:04:56;14.32;;;11.85;;
635;SDS011;302;50.206;8.196;2023-01-26T04:07:40;11.30;;;10.10;;
635;SDS011;302;50.206;8.196;2023-01-26T04:10:26;14.98;;;12.30;;
635;SDS011;302;50.206;8.196;2023-01-26T04:12:51;14.32;;;11.75;;
635;SDS011;302;50.206;8.196;2023-01-26T04:15:35;15.30;;;13.48;;
635;SDS011;302;50.206;8.196;2023-01-26T04:18:19;17.08;;;12.68;;
635;SDS011;302;50.206;8.196;2023-01-26T04:21:03;15.20;;;13.07;;
635;SDS011;302;50.206;8.196;2023-01-26T04:23:47;17.30;;;14.43;;
635;SDS011;302;50.206;8.196;2023-01-26T04:26:13;18.27;;;15.17;;
635;SDS011;302;50.206;8.196;2023-01-26T04:28:38;18.23;;;14.60;;
635;SDS011;302;50.206;8.196;2023-01-26T04:31:03;15.43;;;13.37;;
635;SDS011;302;50.206;8.196;2023-01-26T04:33:29;15.70;;;13.87;;
635;SDS011;302;50.206;8.196;2023-01-26T04:35:54;16.20;;;13.10;;
635;SDS011;302;50.206;8.196;2023-01-26T04:38:19;13.60;;;11.93;;
635;SDS011;302;50.206;8.196;2023-01-26T04:40:44;15.50;;;13.20;;
635;SDS011;302;50.206;8.196;2023-01-26T04:43:16;13.07;;;11.77;;
635;SDS011;302;50.206;8.196;2023-01-26T04:45:41;17.65;;;12.05;;
635;SDS011;302;50.206;8.196;2023-01-26T04:48:06;12.87;;;11.07;;
635;SDS011;302;50.206;8.196;2023-01-26T04:50:31;14.95;;;11.65;;
635;SDS011;302;50.206;8.196;2023-01-26T04:52:56;14.57;;;11.87;;
635;SDS011;302;50.206;8.196;2023-01-26T04:55:22;13.43;;;11.20;;
635;SDS011;302;50.206;8.196;2023-01-26T04:57:47;16.30;;;11.63;;
635;SDS011;302;50.206;8.196;2023-01-26T05:00:12;15.80;;;13.07;;
635;SDS011;302;50.206;8.196;2023-01-26T05:02:38;17.30;;;13.83;;
635;SDS011;302;50.206;8.196;2023-01-26T05:05:04;15.68;;;13.05;;
635;SDS011;302;50.206;8.196;2023-01-26T05:07:29;16.97;;;14.00;;
635;SDS011;302;50.206;8.196;2023-01-26T05:09:54;17.53;;;15.23;;
635;SDS011;302;50.206;8.196;2023-01-26T05:12:20;15.57;;;12.73;;
635;SDS011;302;50.206;8.196;2023-01-26T05:15:02;16.42;;;12.88;;
635;SDS011;302;50.206;8.196;2023-01-26T05:17:27;16.40;;;13.37;;
635;SDS011;302;50.206;8.196;2023-01-26T05:19:52;17.17;;;14.47;;
635;SDS011;302;50.206;8.196;2023-01-26T05:22:17;16.60;;;13.87;;
635;SDS011;302;50.206;8.196;2023-01-26T05:24:42;17.10;;;14.23;;
635;SDS011;302;50.206;8.196;2023-01-26T05:27:07;19.80;;;16.87;;
635;SDS011;302;50.206;8.196;2023-01-26T05:29:45;19.85;;;15.63;;
635;SDS011;302;50.206;8.196;2023-01-26T05:32:10;19.40;;;16.00;;
635;SDS011;302;50.206;8.196;2023-01-26T05:34:35;16.90;;;14.00;;
635;SDS011;302;50.206;8.196;2023-01-26T05:37:00;16.40;;;14.40;;
635;SDS011;302;50.206;8.196;2023-01-26T05:39:25;18.03;;;14.80;;
635;SDS011;302;50.206;8.196;2023-01-26T05:41:50;17.70;;;15.67;;
635;SDS011;302;50.206;8.196;2023-01-26T05:44:16;19.53;;;15.70;;
635;SDS011;302;50.206;8.196;2023-01-26T05:46:41;17.07;;;14.20;;
635;SDS011;302;50.206;8.196;2023-01-26T05:49:06;18.35;;;14.40;;
635;SDS011;302;50.206;8.196;2023-01-26T05:51:31;17.57;;;13.97;;
635;SDS011;302;50.206;8.196;2023-01-26T05:53:56;15.83;;;14.23;;
635;SDS011;302;50.206;8.196;2023-01-26T05:56:21;18.40;;;13.90;;
635;SDS011;302;50.206;8.196;2023-01-26T05:58:47;17.93;;;14.70;;
635;SDS011;302;50.206;8.196;2023-01-26T06:01:12;19.90;;;14.17;;
635;SDS011;302;50.206;8.196;2023-01-26T06:03:37;14.98;;;13.02;;
635;SDS011;302;50.206;8.196;2023-01-26T06:06:02;17.47;;;14.30;;
635;SDS011;302;50.206;8.196;2023-01-26T06:08:27;18.40;;;14.27;;
635;SDS011;302;50.206;8.196;2023-01-26T06:10:57;18.27;;;14.40;;
635;SDS011;302;50.206;8.196;2023-01-26T06:13:22;22.20;;;17.50;;
635;SDS011;302;50.206;8.196;2023-01-26T06:15:48;20.27;;;16.70;;
635;SDS011;302;50.206;8.196;2023-01-26T06:18:13;25.77;;;17.27;;
635;SDS011;302;50.206;8.196;2023-01-26T06:20:38;23.10;;;16.10;;
635;SDS011;302;50.206;8.196;2023-01-26T06:23:03;26.13;;;19.43;;
635;SDS011;302;50.206;8.196;2023-01-26T06:25:29;22.35;;;16.40;;
635;SDS011;302;50.206;8.196;2023-01-26T06:27:57;28.93;;;18.10;;
635;SDS011;302;50.206;8.196;2023-01-26T06:30:23;24.70;;;18.63;;
635;SDS011;302;50.206;8.196;2023-01-26T06:32:48;20.97;;;15.50;;
635;SDS011;302;50.206;8.196;2023-01-26T06:35:13;20.33;;;15.67;;
635;SDS011;302;50.206;8.196;2023-01-26T06:37:38;24.23;;;17.27;;
635;SDS011;302;50.206;8.196;2023-01-26T06:40:03;26.40;;;18.40;;
635;SDS011;302;50.206;8.196;2023-01-26T06:42:29;25.47;;;18.23;;
635;SDS011;302;50.206;8.196;2023-01-26T06:44:54;23.60;;;19.00;;
635;SDS011;302;50.206;8.196;2023-01-26T06:47:21;26.00;;;19.38;;
635;SDS011;302;50.206;8.196;2023-01-26T06:49:46;32.63;;;19.38;;
635;SDS011;302;50.206;8.196;2023-01-26T06:52:21;24.77;;;17.87;;
635;SDS011;302;50.206;8.196;2023-01-26T06:54:49;34.35;;;21.30;;
635;SDS011;302;50.206;8.196;2023-01-26T06:57:15;25.50;;;18.83;;
635;SDS011;302;50.206;8.196;2023-01-26T06:59:40;29.30;;;20.03;;
635;SDS011;302;50.206;8.196;2023-01-26T07:02:05;34.33;;;20.90;;
635;SDS011;302;50.206;8.196;2023-01-26T07:04:30;26.67;;;20.00;;
635;SDS011;302;50.206;8.196;2023-01-26T07:06:55;28.67;;;20.47;;
635;SDS011;302;50.206;8.196;2023-01-26T07:09:21;28.07;;;19.50;;
635;SDS011;302;50.206;8.196;2023-01-26T07:11:46;30.10;;;19.47;;
635;SDS011;302;50.206;8.196;2023-01-26T07:14:11;26.77;;;18.60;;
635;SDS011;302;50.206;8.196;2023-01-26T07:16:36;30.67;;;21.30;;
635;SDS011;302;50.206;8.196;2023-01-26T07:19:01;25.27;;;18.13;;
635;SDS011;302;50.206;8.196;2023-01-26T07:21:26;26.57;;;18.13;;
635;SDS011;302;50.206;8.196;2023-01-26T07:23:52;27.07;;;19.20;;
635;SDS011;302;50.206;8.196;2023-01-26T07:26:18;30.67;;;20.38;;
635;SDS011;302;50.206;8.196;2023-01-26T07:28:43;28.77;;;20.17;;
635;SDS011;302;50.206;8.196;2023-01-26T07:31:09;28.27;;;20.37;;
635;SDS011;302;50.206;8.196;2023-01-26T07:33:34;27.30;;;20.00;;
635;SDS011;302;50.206;8.196;2023-01-26T07:36:00;29.33;;;21.07;;
635;SDS011;302;50.206;8.196;2023-01-26T07:38:25;31.13;;;20.60;;
635;SDS011;302;50.206;8.196;2023-01-26T07:40:52;32.63;;;22.98;;
635;SDS011;302;50.206;8.196;2023-01-26T07:43:17;34.47;;;22.80;;
635;SDS011;302;50.206;8.196;2023-01-26T07:45:49;31.00;;;21.60;;
635;SDS011;302;50.206;8.196;2023-01-26T07:48:18;30.15;;;20.88;;
635;SDS011;302;50.206;8.196;2023-01-26T07:50:44;28.17;;;20.10;;
635;SDS011;302;50.206;8.196;2023-01-26T07:53:09;29.33;;;22.23;;
635;SDS011;302;50.206;8.196;2023-01-26T07:55:36;30.67;;;21.30;;
635;SDS011;302;50.206;8.196;2023-01-26T07:58:02;28.70;;;21.57;;
635;SDS011;302;50.206;8.196;2023-01-26T08:00:27;26.45;;;19.98;;
635;SDS011;302;50.206;8.196;2023-01-26T08:02:52;29.17;;;19.53;;
635;SDS011;302;50.206;8.196;2023-01-26T08:05:17;29.97;;;21.77;;
635;SDS011;302;50.206;8.196;2023-01-26T08:07:42;30.70;;;21.50;;
635;SDS011;302;50.206;8.196;2023-01-26T08:10:08;27.93;;;19.90;;
635;SDS011;302;50.206;8.196;2023-01-26T08:12:34;32.10;;;21.73;;
635;SDS011;302;50.206;8.196;2023-01-26T08:14:59;30.07;;;20.83;;
635;SDS011;302;50.206;8.196;2023-01-26T08:17:25;31.70;;;20.83;;
635;SDS011;302;50.206;8.196;2023-01-26T08:19:50;24.53;;;18.60;;
635;SDS011;302;50.206;8.196;2023-01-26T08:22:15;29.33;;;20.03;;
635;SDS011;302;50.206;8.196;2023-01-26T08:24:40;30.60;;;22.40;;
635;SDS011;302;50.206;8.196;2023-01-26T08:27:05;27.23;;;19.80;;
635;SDS011;302;50.206;8.196;2023-01-26T08:29:31;28.97;;;21.00;;
635;SDS011;302;50.206;8.196;2023-01-26T08:31:56;26.70;;;19.50;;
635;SDS011;302;50.206;8.196;2023-01-26T08:34:21;27.70;;;20.03;;
635;SDS011;302;50.206;8.196;2023-01-26T08:36:46;30.07;;;20.37;;
635;SDS011;302;50.206;8.196;2023-01-26T08:39:12;27.10;;;19.00;;
635;SDS011;302;50.206;8.196;2023-01-26T08:41:37;29.03;;;20.90;;
635;SDS011;302;50.206;8.196;2023-01-26T08:44:03;32.15;;;22.10;;
635;SDS011;302;50.206;8.196;2023-01-26T08:46:28;31.20;;;19.40;;
635;SDS011;302;50.206;8.196;2023-01-26T08:48:53;25.70;;;18.70;;
635;SDS011;302;50.206;8.196;2023-01-26T08:51:19;29.27;;;20.00;;
635;SDS011;302;50.206;8.196;2023-01-26T08:53:44;25.70;;;19.23;;
635;SDS011;302;50.206;8.196;2023-01-26T08:56:10;27.03;;;18.87;;
635;SDS011;302;50.206;8.196;2023-01-26T08:58:36;29.27;;;18.95;;
635;SDS011;302;50.206;8.196;2023-01-26T09:01:04;30.70;;;20.63;;
635;SDS011;302;50.206;8.196;2023-01-26T09:03:29;31.38;;;19.67;;
635;SDS011;302;50.206;8.196;2023-01-26T09:05:57;32.43;;;19.73;;
635;SDS011;302;50.206;8.196;2023-01-26T09:08:23;29.60;;;19.98;;
635;SDS011;302;50.206;8.196;2023-01-26T09:10:48;28.53;;;19.13;;
635;SDS011;302;50.206;8.196;2023-01-26T09:13:13;29.40;;;19.87;;
635;SDS011;302;50.206;8.196;2023-01-26T09:15:38;31.77;;;21.00;;
635;SDS011;302;50.206;8.196;2023-01-26T09:18:03;26.43;;;18.90;;
635;SDS011;302;50.206;8.196;2023-01-26T09:20:29;27.63;;;18.07;;
635;SDS011;302;50.206;8.196;2023-01-26T09:22:54;30.73;;;19.80;;
635;SDS011;302;50.206;8.196;2023-01-26T09:25:19;31.73;;;18.47;;
635;SDS011;302;50.206;8.196;2023-01-26T09:27:44;25.00;;;17.30;;
635;SDS011;302;50.206;8.196;2023-01-26T09:30:10;25.53;;;18.23;;
635;SDS011;302;50.206;8.196;2023-01-26T09:32:36;20.23;;;16.38;;
635;SDS011;302;50.206;8.196;2023-01-26T09:35:01;24.30;;;16.60;;
635;SDS011;302;50.206;8.196;2023-01-26T09:37:26;25.03;;;18.37;;
635;SDS011;302;50.206;8.196;2023-01-26T09:39:51;25.35;;;17.75;;
635;SDS011;302;50.206;8.196;2023-01-26T09:45:34;22.48;;;16.15;;
635;SDS011;302;50.206;8.196;2023-01-26T09:47:36;21.90;;;15.77;;
635;SDS011;302;50.206;8.196;2023-01-26T09:50:17;21.77;;;14.98;;
635;SDS011;302;50.206;8.196;2023-01-26T09:52:51;21.70;;;14.90;;
635;SDS011;302;50.206;8.196;2023-01-26T09:55:18;20.92;;;15.30;;
635;SDS011;302;50.206;8.196;2023-01-26T09:57:58;15.93;;;12.98;;
635;SDS011;302;50.206;8.196;2023-01-26T10:00:31;12.85;;;11.32;;
635;SDS011;302;50.206;8.196;2023-01-26T10:03:03;13.93;;;11.25;;
635;SDS011;302;50.206;8.196;2023-01-26T10:08:15;14.30;;;11.88;;
635;SDS011;302;50.206;8.196;2023-01-26T10:10:46;14.10;;;12.23;;
635;SDS011;302;50.206;8.196;2023-01-26T10:13:13;13.20;;;11.80;;
635;SDS011;302;50.206;8.196;2023-01-26T10:15:38;13.50;;;12.10;;
635;SDS011;302;50.206;8.196;2023-01-26T10:18:06;12.45;;;11.10;;
635;SDS011;302;50.206;8.196;2023-01-26T10:20:33;13.55;;;12.23;;
635;SDS011;302;50.206;8.196;2023-01-26T10:23:08;13.70;;;12.30;;
635;SDS011;302;50.206;8.196;2023-01-26T10:25:36;11.93;;;10.73;;
635;SDS011;302;50.206;8.196;2023-01-26T10:30:37;14.80;;;13.20;;
635;SDS011;302;50.206;8.196;2023-01-26T10:33:04;14.30;;;12.77;;
635;SDS011;302;50.206;8.196;2023-01-26T10:35:33;17.60;;;12.93;;
635;SDS011;302;50.206;8.196;2023-01-26T10:37:58;13.45;;;12.05;;
635;SDS011;302;50.206;8.196;2023-01-26T10:40:23;14.73;;;12.70;;
635;SDS011;302;50.206;8.196;2023-01-26T10:42:53;13.50;;;12.10;;
635;SDS011;302;50.206;8.196;2023-01-26T10:45:23;13.50;;;11.88;;
635;SDS011;302;50.206;8.196;2023-01-26T10:50:50;12.90;;;11.70;;
635;SDS011;302;50.206;8.196;2023-01-26T10:53:17;13.10;;;11.80;;
635;SDS011;302;50.206;8.196;2023-01-26T10:55:43;14.13;;;11.80;;
635;SDS011;302;50.206;8.196;2023-01-26T10:58:43;13.10;;;11.55;;
635;SDS011;302;50.206;8.196;2023-01-26T11:01:07;14.45;;;12.88;;
635;SDS011;302;50.206;8.196;2023-01-26T11:03:36;14.73;;;12.50;;
635;SDS011;302;50.206;8.196;2023-01-26T11:06:20;14.02;;;12.05;;
635;SDS011;302;50.206;8.196;2023-01-26T11:08:50;14.43;;;12.93;;
635;SDS011;302;50.206;8.196;2023-01-26T11:11:22;13.53;;;12.13;;
635;SDS011;302;50.206;8.196;2023-01-26T11:13:51;12.55;;;11.25;;
635;SDS011;302;50.206;8.196;2023-01-26T11:16:19;14.50;;;12.88;;
635;SDS011;302;50.206;8.196;2023-01-26T11:26:38;14.60;;;13.05;;
635;SDS011;302;50.206;8.196;2023-01-26T11:34:39;14.75;;;13.02;;
635;SDS011;302;50.206;8.196;2023-01-26T11:39:55;19.23;;;15.63;;
635;SDS011;302;50.206;8.196;2023-01-26T11:50:22;14.50;;;12.53;;
635;SDS011;302;50.206;8.196;2023-01-26T11:55:37;14.05;;;12.65;;
635;SDS011;302;50.206;8.196;2023-01-26T11:58:14;17.42;;;15.10;;
635;SDS011;302;50.206;8.196;2023-01-26T12:03:26;15.13;;;13.40;;
635;SDS011;302;50.206;8.196;2023-01-26T12:05:56;15.18;;;13.57;;
635;SDS011;302;50.206;8.196;2023-01-26T12:08:30;16.73;;;14.93;;
635;SDS011;302;50.206;8.196;2023-01-26T12:11:09;18.65;;;14.32;;
635;SDS011;302;50.206;8.196;2023-01-26T12:16:30;18.67;;;15.70;;
635;SDS011;302;50.206;8.196;2023-01-26T12:19:11;18.40;;;16.50;;
635;SDS011;302;50.206;8.196;2023-01-26T12:21:42;18.02;;;15.63;;
635;SDS011;302;50.206;8.196;2023-01-26T12:24:09;19.20;;;16.05;;
635;SDS011;302;50.206;8.196;2023-01-26T12:26:38;17.30;;;15.10;;
635;SDS011;302;50.206;8.196;2023-01-26T12:29:13;17.40;;;15.25;;
635;SDS011;302;50.206;8.196;2023-01-26T12:34:10;17.98;;;15.93;;
635;SDS011;302;50.206;8.196;2023-01-26T12:36:40;16.45;;;14.50;;
635;SDS011;302;50.206;8.196;2023-01-26T12:41:54;45.38;;;36.60;;
635;SDS011;302;50.206;8.196;2023-01-26T12:44:36;21.25;;;16.65;;
635;SDS011;302;50.206;8.196;2023-01-26T12:47:04;20.35;;;16.80;;
635;SDS011;302;50.206;8.196;2023-01-26T12:49:35;22.73;;;18.42;;
635;SDS011;302;50.206;8.196;2023-01-26T12:52:06;20.50;;;16.23;;
635;SDS011;302;50.206;8.196;2023-01-26T12:55:06;22.10;;;19.70;;
635;SDS011;302;50.206;8.196;2023-01-26T12:57:24;16.88;;;14.10;;
635;SDS011;302;50.206;8.196;2023-01-26T12:59:51;15.40;;;13.02;;
635;SDS011;302;50.206;8.196;2023-01-26T13:02:27;16.40;;;13.13;;
635;SDS011;302;50.206;8.196;2023-01-26T13:04:54;16.38;;;13.82;;
635;SDS011;302;50.206;8.196;2023-01-26T13:07:38;18.08;;;14.73;;
635;SDS011;302;50.206;8.196;2023-01-26T13:15:23;17.55;;;14.60;;
635;SDS011;302;50.206;8.196;2023-01-26T13:17:50;18.20;;;14.45;;
635;SDS011;302;50.206;8.196;2023-01-26T13:22:59;17.50;;;15.18;;
635;SDS011;302;50.206;8.196;2023-01-26T13:25:31;18.07;;;15.40;;
635;SDS011;302;50.206;8.196;2023-01-26T13:35:12;19.77;;;15.82;;
635;SDS011;302;50.206;8.196;2023-01-26T13:40:35;22.20;;;15.52;;
635;SDS011;302;50.206;8.196;2023-01-26T13:51:13;26.92;;;19.23;;
635;SDS011;302;50.206;8.196;2023-01-26T13:53:40;26.52;;;18.30;;
635;SDS011;302;50.206;8.196;2023-01-26T13:58:47;31.23;;;20.98;;
635;SDS011;302;50.206;8.196;2023-01-26T14:01:13;28.27;;;18.60;;
635;SDS011;302;50.206;8.196;2023-01-26T14:03:38;31.83;;;19.40;;
635;SDS011;302;50.206;8.196;2023-01-26T14:06:04;31.50;;;19.63;;
635;SDS011;302;50.206;8.196;2023-01-26T14:08:33;32.15;;;20.77;;
635;SDS011;302;50.206;8.196;2023-01-26T14:10:58;33.63;;;22.10;;
635;SDS011;302;50.206;8.196;2023-01-26T14:13:36;30.67;;;21.00;;
635;SDS011;302;50.206;8.196;2023-01-26T14:16:02;31.30;;;20.60;;
635;SDS011;302;50.206;8.196;2023-01-26T14:18:28;36.15;;;23.35;;
635;SDS011;302;50.206;8.196;2023-01-26T14:21:01;34.23;;;22.80;;
635;SDS011;302;50.206;8.196;2023-01-26T14:23:28;35.70;;;23.33;;
635;SDS011;302;50.206;8.196;2023-01-26T14:26:01;35.58;;;21.85;;
635;SDS011;302;50.206;8.196;2023-01-26T14:28:28;33.13;;;21.92;;
635;SDS011;302;50.206;8.196;2023-01-26T14:31:02;37.42;;;22.83;;
635;SDS011;302;50.206;8.196;2023-01-26T14:33:27;39.38;;;25.00;;
635;SDS011;302;50.206;8.196;2023-01-26T14:35:54;33.27;;;21.37;;
635;SDS011;302;50.206;8.196;2023-01-26T14:38:19;33.65;;;22.30;;
635;SDS011;302;50.206;8.196;2023-01-26T14:40:48;41.07;;;26.27;;
635;SDS011;302;50.206;8.196;2023-01-26T14:43:14;34.70;;;23.50;;
635;SDS011;302;50.206;8.196;2023-01-26T14:45:42;33.40;;;23.40;;
635;SDS011;302;50.206;8.196;2023-01-26T14:48:08;39.15;;;23.10;;
635;SDS011;302;50.206;8.196;2023-01-26T14:50:36;32.67;;;22.77;;
635;SDS011;302;50.206;8.196;2023-01-26T14:53:02;38.65;;;23.20;;
635;SDS011;302;50.206;8.196;2023-01-26T14:55:29;38.22;;;22.95;;
635;SDS011;302;50.206;8.196;2023-01-26T14:57:55;39.53;;;24.55;;
635;SDS011;302;50.206;8.196;2023-01-26T15:00:23;34.10;;;23.50;;
635;SDS011;302;50.206;8.196;2023-01-26T15:02:48;40.92;;;24.65;;
635;SDS011;302;50.206;8.196;2023-01-26T15:05:17;36.25;;;24.55;;
635;SDS011;302;50.206;8.196;2023-01-26T15:07:44;40.47;;;27.45;;
635;SDS011;302;50.206;8.196;2023-01-26T15:15:37;32.92;;;22.40;;
635;SDS011;302;50.206;8.196;2023-01-26T15:18:04;36.15;;;23.85;;
635;SDS011;302;50.206;8.196;2023-01-26T15:22:54;35.72;;;22.65;;
635;SDS011;302;50.206;8.196;2023-01-26T15:25:24;32.90;;;23.00;;
635;SDS011;302;50.206;8.196;2023-01-26T15:27:55;30.50;;;22.13;;
635;SDS011;302;50.206;8.196;2023-01-26T15:30:31;31.23;;;22.73;;
635;SDS011;302;50.206;8.196;2023-01-26T15:32:57;29.30;;;20.35;;
635;SDS011;302;50.206;8.196;2023-01-26T15:35:32;27.07;;;18.90;;
635;SDS011;302;50.206;8.196;2023-01-26T15:40:25;27.67;;;20.48;;
635;SDS011;302;50.206;8.196;2023-01-26T15:43:02;26.63;;;20.87;;
635;SDS011;302;50.206;8.196;2023-01-26T15:45:28;26.88;;;19.85;;
635;SDS011;302;50.206;8.196;2023-01-26T15:47:57;28.00;;;19.75;;
635;SDS011;302;50.206;8.196;2023-01-26T15:50:25;27.77;;;19.88;;
635;SDS011;302;50.206;8.196;2023-01-26T15:52:50;26.33;;;19.10;;
635;SDS011;302;50.206;8.196;2023-01-26T15:55:17;30.67;;;21.83;;
635;SDS011;302;50.206;8.196;2023-01-26T15:57:43;29.60;;;22.85;;
635;SDS011;302;50.206;8.196;2023-01-26T16:00:11;28.20;;;21.80;;
635;SDS011;302;50.206;8.196;2023-01-26T16:02:37;73.00;;;65.78;;
635;SDS011;302;50.206;8.196;2023-01-26T16:05:02;75.57;;;67.90;;
635;SDS011;302;50.206;8.196;2023-01-26T16:07:27;30.27;;;24.47;;
635;SDS011;302;50.206;8.196;2023-01-26T16:09:52;33.63;;;30.00;;
635;SDS011;302;50.206;8.196;2023-01-26T16:12:18;39.10;;;35.00;;
635;SDS011;302;50.206;8.196;2023-01-26T16:14:43;35.43;;;31.40;;
635;SDS011;302;50.206;8.196;2023-01-26T16:17:12;26.90;;;23.20;;
635;SDS011;302;50.206;8.196;2023-01-26T16:19:38;33.83;;;25.35;;
635;SDS011;302;50.206;8.196;2023-01-26T16:22:03;26.53;;;20.87;;
635;SDS011;302;50.206;8.196;2023-01-26T16:24:29;23.95;;;20.48;;
635;SDS011;302;50.206;8.196;2023-01-26T16:26:54;30.07;;;21.40;;
635;SDS011;302;50.206;8.196;2023-01-26T16:29:19;28.70;;;22.80;;
635;SDS011;302;50.206;8.196;2023-01-26T16:31:45;32.70;;;24.60;;
635;SDS011;302;50.206;8.196;2023-01-26T16:34:10;25.40;;;19.90;;
635;SDS011;302;50.206;8.196;2023-01-26T16:36:35;29.70;;;24.73;;
635;SDS011;302;50.206;8.196;2023-01-26T16:39:01;30.67;;;21.77;;
635;SDS011;302;50.206;8.196;2023-01-26T16:41:27;26.07;;;20.53;;
635;SDS011;302;50.206;8.196;2023-01-26T16:43:53;27.40;;;19.65;;
635;SDS011;302;50.206;8.196;2023-01-26T16:46:18;22.35;;;17.05;;
635;SDS011;302;50.206;8.196;2023-01-26T16:48:44;27.70;;;21.47;;
635;SDS011;302;50.206;8.196;2023-01-26T16:51:10;21.07;;;18.60;;
635;SDS011;302;50.206;8.196;2023-01-26T16:53:37;25.23;;;18.17;;
635;SDS011;302;50.206;8.196;2023-01-26T16:56:02;27.50;;;21.20;;
635;SDS011;302;50.206;8.196;2023-01-26T16:58:27;25.60;;;19.13;;
635;SDS011;302;50.206;8.196;2023-01-26T17:00:54;25.77;;;21.60;;